createdAt,value
2018-11-03T00:01:36.246Z,100854.52
2018-11-03T00:04:40.809Z,100844.48
2018-11-03T00:07:46.016Z,100832.27
2018-11-03T00:10:50.609Z,100824.06
2018-11-03T00:13:55.190Z,100826.38
2018-11-03T00:16:59.693Z,100828.08
2018-11-03T00:20:04.499Z,100828.05
2018-11-03T00:23:09.754Z,100829.24
2018-11-03T00:26:14.313Z,100833.27
2018-11-03T00:29:18.904Z,100841.66
2018-11-03T00:32:23.576Z,100846.32
2018-11-03T00:35:28.275Z,100847.84
2018-11-03T00:38:32.901Z,100854.53
2018-11-03T00:41:37.490Z,100852.22
2018-11-03T00:44:42.031Z,100856.38
2018-11-03T00:47:46.613Z,100849.86
2018-11-03T00:50:51.177Z,100853.22
2018-11-03T00:53:55.748Z,100854.37
2018-11-03T00:57:00.328Z,100859.74
2018-11-03T01:00:05.961Z,100858.25
2018-11-03T01:03:10.492Z,100856.41
2018-11-03T01:06:15.105Z,100863.78
2018-11-03T01:09:19.769Z,100861.11
2018-11-03T01:12:24.346Z,100861.45
2018-11-03T01:15:28.867Z,100863.47
2018-11-03T01:18:33.468Z,100869.49
2018-11-03T01:21:38.001Z,100861.47
2018-11-03T01:24:42.577Z,100858.27
2018-11-03T01:27:47.169Z,100852.41
2018-11-03T01:30:51.708Z,100850.73
2018-11-03T01:33:56.434Z,100842.53
2018-11-03T01:37:01.214Z,100841.38
2018-11-03T01:40:06.119Z,100844.88
2018-11-03T01:43:10.716Z,100849.55
2018-11-03T01:46:15.676Z,100851.88
2018-11-03T01:49:20.307Z,100849.70
2018-11-03T01:52:24.986Z,100846.02
2018-11-03T01:55:29.584Z,100844.84
2018-11-03T01:58:34.263Z,100851.52
2018-11-03T02:01:38.873Z,100843.84
2018-11-03T02:04:43.457Z,100838.77
2018-11-03T02:07:48.032Z,100839.58
2018-11-03T02:10:52.697Z,100838.90
2018-11-03T02:13:57.228Z,100841.05
2018-11-03T02:17:01.772Z,100853.09
2018-11-03T02:20:09.247Z,100850.42
2018-11-03T02:23:13.956Z,100857.80
2018-11-03T02:26:18.525Z,100858.69
2018-11-03T02:29:23.406Z,100854.80
2018-11-03T02:32:28.021Z,100863.98
2018-11-03T02:35:32.552Z,100856.61
2018-11-03T02:38:37.300Z,100860.45
2018-11-03T02:41:41.976Z,100863.30
2018-11-03T02:44:46.629Z,100868.95
2018-11-03T02:47:51.288Z,100866.78
2018-11-03T02:50:55.875Z,100864.75
2018-11-03T02:54:00.761Z,100870.39
2018-11-03T02:57:05.637Z,100876.59
2018-11-03T03:00:11.644Z,100878.72
2018-11-03T03:03:16.225Z,100883.02
2018-11-03T03:06:20.825Z,100883.38
2018-11-03T03:09:25.530Z,100893.03
2018-11-03T03:12:30.080Z,100894.91
2018-11-03T03:15:34.709Z,100884.54
2018-11-03T03:18:39.289Z,100890.63
2018-11-03T03:21:43.904Z,100898.55
2018-11-03T03:24:48.504Z,100895.04
2018-11-03T03:27:53.093Z,100897.86
2018-11-03T03:30:57.764Z,100895.00
2018-11-03T03:34:02.551Z,100890.20
2018-11-03T03:37:07.260Z,100897.39
2018-11-03T03:40:12.210Z,100897.46
2018-11-03T03:43:16.844Z,100903.09
2018-11-03T03:46:21.499Z,100901.55
2018-11-03T03:49:26.175Z,100899.02
2018-11-03T03:52:30.704Z,100901.11
2018-11-03T03:55:35.300Z,100896.19
2018-11-03T03:58:40.140Z,100893.77
2018-11-03T04:01:44.811Z,100898.79
2018-11-03T04:04:49.566Z,100894.59
2018-11-03T04:07:54.156Z,100902.13
2018-11-03T04:10:58.745Z,100913.38
2018-11-03T04:14:03.500Z,100911.61
2018-11-03T04:17:08.154Z,100908.56
2018-11-03T04:20:12.826Z,100902.38
2018-11-03T04:23:17.470Z,100915.11
2018-11-03T04:26:22.100Z,100903.90
2018-11-03T04:29:26.607Z,100903.21
2018-11-03T04:32:31.363Z,100896.38
2018-11-03T04:35:36.031Z,100903.06
2018-11-03T04:38:40.628Z,100903.22
2018-11-03T04:41:45.398Z,100900.54
2018-11-03T04:44:49.956Z,100886.82
2018-11-03T04:47:54.509Z,100889.56
2018-11-03T04:50:59.169Z,100887.34
2018-11-03T04:54:03.779Z,100891.63
2018-11-03T04:57:08.384Z,100884.72
2018-11-03T05:00:12.993Z,100887.44
2018-11-03T05:03:17.523Z,100890.83
2018-11-03T05:06:22.165Z,100891.05
2018-11-03T05:09:26.872Z,100895.28
2018-11-03T05:12:31.704Z,100904.58
2018-11-03T05:15:36.259Z,100903.06
2018-11-03T05:18:41.222Z,100909.77
2018-11-03T05:21:45.797Z,100907.93
2018-11-03T05:24:50.396Z,100916.87
2018-11-03T05:27:55.049Z,100920.23
2018-11-03T05:30:59.657Z,100922.50
2018-11-03T05:34:04.240Z,100917.38
2018-11-03T05:37:08.878Z,100923.30
2018-11-03T05:40:13.497Z,100921.23
2018-11-03T05:43:18.073Z,100932.95
2018-11-03T05:46:22.633Z,100935.79
2018-11-03T05:49:27.325Z,100928.00
2018-11-03T05:52:31.966Z,100929.30
2018-11-03T05:55:36.642Z,100931.35
2018-11-03T05:58:41.269Z,100934.44
2018-11-03T06:01:46.007Z,100928.69
2018-11-03T06:04:50.723Z,100929.34
2018-11-03T06:07:55.818Z,100925.60
2018-11-03T06:11:00.394Z,100932.43
2018-11-03T06:14:05.073Z,100922.10
2018-11-03T06:17:09.967Z,100931.02
2018-11-03T06:20:14.606Z,100933.64
2018-11-03T06:23:19.261Z,100930.27
2018-11-03T06:26:23.801Z,100930.28
2018-11-03T06:29:28.350Z,100933.08
2018-11-03T06:32:33.008Z,100934.75
2018-11-03T06:35:37.631Z,100931.95
2018-11-03T06:38:42.194Z,100938.49
2018-11-03T06:41:46.932Z,100941.77
2018-11-03T06:44:51.704Z,100941.91
2018-11-03T06:47:56.310Z,100940.44
2018-11-03T06:51:00.974Z,100949.55
2018-11-03T06:54:06.165Z,100944.81
2018-11-03T06:57:10.780Z,100956.14
2018-11-03T07:00:15.340Z,100960.69
2018-11-03T07:03:19.841Z,100953.98
2018-11-03T07:06:24.888Z,100958.91
2018-11-03T07:09:29.544Z,100960.69
2018-11-03T07:12:34.363Z,100954.98
2018-11-03T07:15:38.786Z,100955.56
2018-11-03T07:18:43.508Z,100964.17
2018-11-03T07:21:48.140Z,100965.91
2018-11-03T07:24:52.876Z,100970.29
2018-11-03T07:27:57.413Z,100968.50
2018-11-03T07:31:02.220Z,100965.66
2018-11-03T07:34:07.071Z,100963.56
2018-11-03T07:37:37.062Z,100964.64
2018-11-03T07:40:41.794Z,100964.39
2018-11-03T07:43:46.379Z,100968.48
2018-11-03T07:46:50.945Z,100971.67
2018-11-03T07:49:56.263Z,100966.83
2018-11-03T07:53:00.804Z,100957.48
2018-11-03T07:56:05.774Z,100964.44
2018-11-03T07:59:10.395Z,100952.23
2018-11-03T08:02:14.979Z,100948.33
2018-11-03T08:05:19.541Z,100940.68
2018-11-03T08:08:24.020Z,100938.38
2018-11-03T08:11:28.712Z,100933.40
2018-11-03T08:14:33.368Z,100931.56
2018-11-03T08:17:37.903Z,100933.77
2018-11-03T08:20:42.502Z,100934.60
2018-11-03T08:23:47.196Z,100939.63
2018-11-03T08:26:51.895Z,100937.09
2018-11-03T08:29:56.594Z,100941.09
2018-11-03T08:33:01.226Z,100946.48
2018-11-03T08:36:06.054Z,100950.85
2018-11-03T08:39:11.428Z,100948.53
2018-11-03T08:42:15.914Z,100942.64
2018-11-03T08:45:20.461Z,100946.83
2018-11-03T08:48:25.246Z,100943.32
2018-11-03T08:51:29.896Z,100935.70
2018-11-03T08:54:34.456Z,100935.05
2018-11-03T08:57:39.037Z,100931.49
2018-11-03T09:00:43.572Z,100943.24
2018-11-03T09:03:48.141Z,100932.98
2018-11-03T09:06:52.756Z,100936.21
2018-11-03T09:09:57.429Z,100939.60
2018-11-03T09:13:02.047Z,100936.72
2018-11-03T09:16:06.628Z,100931.95
2018-11-03T09:19:12.877Z,100930.05
2018-11-03T09:22:17.577Z,100917.97
2018-11-03T09:25:22.191Z,100915.00
2018-11-03T09:28:26.737Z,100911.99
2018-11-03T09:31:31.299Z,100917.06
2018-11-03T09:34:35.853Z,100912.44
2018-11-03T09:37:40.578Z,100919.44
2018-11-03T09:40:45.256Z,100909.86
2018-11-03T09:43:49.813Z,100913.20
2018-11-03T09:46:54.456Z,100918.47
2018-11-03T09:49:59.067Z,100909.30
2018-11-03T09:53:03.683Z,100911.80
2018-11-03T09:56:08.552Z,100903.23
2018-11-03T09:59:13.213Z,100906.59
2018-11-03T10:02:18.075Z,100905.13
2018-11-03T10:05:23.765Z,100897.18
2018-11-03T10:08:28.527Z,100895.57
2018-11-03T10:11:33.458Z,100903.11
2018-11-03T10:14:38.292Z,100899.09
2018-11-03T10:17:44.167Z,100898.50
2018-11-03T10:20:48.942Z,100891.92
2018-11-03T10:23:54.032Z,100884.94
2018-11-03T10:27:04.604Z,100882.52
2018-11-03T10:30:11.798Z,100878.16
2018-11-03T10:33:26.679Z,100872.76
2018-11-03T10:36:31.490Z,100862.73
2018-11-03T10:39:36.580Z,100860.09
2018-11-03T10:42:44.263Z,100854.77
2018-11-03T10:46:00.572Z,100855.22
2018-11-03T10:49:05.663Z,100854.72
2018-11-03T10:52:11.263Z,100857.94
2018-11-03T10:55:17.822Z,100856.58
2018-11-03T10:58:22.748Z,100847.78
2018-11-03T11:01:32.866Z,100841.30
2018-11-03T11:04:44.313Z,100843.34
2018-11-03T11:07:55.147Z,100832.78
2018-11-03T11:12:05.207Z,100830.25
2018-11-03T11:15:11.323Z,100827.20
2018-11-03T11:18:17.496Z,100828.73
2018-11-03T11:21:22.958Z,100822.03
2018-11-03T11:24:29.945Z,100818.75
2018-11-03T11:27:40.911Z,100822.91
2018-11-03T11:30:48.198Z,100818.44
2018-11-03T11:33:55.486Z,100815.03
2018-11-03T11:37:02.784Z,100812.43
2018-11-03T11:40:11.194Z,100803.64
2018-11-03T11:43:44.213Z,100802.90
2018-11-03T11:46:49.633Z,100789.20
2018-11-03T11:49:54.937Z,100790.55
2018-11-03T11:53:00.672Z,100785.25
2018-11-03T11:56:06.627Z,100777.16
2018-11-03T11:59:12.511Z,100783.61
2018-11-03T12:02:18.770Z,100774.55
2018-11-03T12:05:25.223Z,100776.41
2018-11-03T12:08:31.306Z,100771.74
2018-11-03T12:11:36.248Z,100771.41
2018-11-03T12:14:41.132Z,100761.80
2018-11-03T12:17:46.842Z,100758.09
2018-11-03T12:20:52.026Z,100754.33
2018-11-03T12:23:56.875Z,100749.66
2018-11-03T12:27:01.709Z,100755.37
2018-11-03T12:30:09.323Z,100751.64
2018-11-03T12:33:14.042Z,100742.56
2018-11-03T12:36:18.873Z,100738.73
2018-11-03T12:39:23.571Z,100733.75
2018-11-03T12:42:28.891Z,100734.73
2018-11-03T12:45:33.720Z,100726.78
2018-11-03T12:48:38.428Z,100729.55
2018-11-03T12:51:43.556Z,100723.25
2018-11-03T12:54:48.187Z,100720.73
2018-11-03T12:57:53.087Z,100711.97
2018-11-03T13:00:57.861Z,100710.06
2018-11-03T13:04:03.021Z,100706.93
2018-11-03T13:07:08.134Z,100701.97
2018-11-03T13:10:13.439Z,100696.68
2018-11-03T13:13:18.301Z,100693.70
2018-11-03T13:16:23.361Z,100686.42
2018-11-03T13:19:28.322Z,100688.58
2018-11-03T13:22:33.592Z,100677.86
2018-11-03T13:25:38.349Z,100676.89
2018-11-03T13:28:43.275Z,100674.84
2018-11-03T13:31:48.624Z,100671.08
2018-11-03T13:34:53.325Z,100673.20
2018-11-03T13:37:58.259Z,100661.44
2018-11-03T13:41:03.203Z,100665.73
2018-11-03T13:44:08.506Z,100649.38
2018-11-03T13:47:13.300Z,100648.22
2018-11-03T13:50:18.466Z,100648.80
2018-11-03T13:53:23.260Z,100654.04
2018-11-03T13:56:28.458Z,100661.55
2018-11-03T13:59:33.715Z,100655.14
2018-11-03T14:02:38.824Z,100653.29
2018-11-03T14:05:43.627Z,100652.14
2018-11-03T14:08:48.602Z,100647.05
2018-11-03T14:11:53.456Z,100644.83
2018-11-03T14:14:58.397Z,100647.15
2018-11-03T14:18:03.123Z,100642.69
2018-11-03T14:21:07.935Z,100640.18
2018-11-03T14:24:12.963Z,100644.05
2018-11-03T14:27:20.925Z,100640.30
2018-11-03T14:30:25.992Z,100638.84
2018-11-03T14:33:30.883Z,100633.16
2018-11-03T14:36:35.871Z,100632.54
2018-11-03T14:39:40.690Z,100634.83
2018-11-03T14:42:46.093Z,100625.14
2018-11-03T14:45:51.058Z,100626.09
2018-11-03T14:48:55.889Z,100627.13
2018-11-03T14:52:00.957Z,100621.42
2018-11-03T14:55:06.832Z,100623.70
2018-11-03T14:58:11.812Z,100625.23
2018-11-03T15:01:16.601Z,100618.17
2018-11-03T15:04:21.539Z,100611.83
2018-11-03T15:07:26.525Z,100605.45
2018-11-03T15:10:31.256Z,100615.94
2018-11-03T15:13:36.276Z,100613.50
2018-11-03T15:16:41.736Z,100613.20
2018-11-03T15:19:46.797Z,100604.98
2018-11-03T15:22:51.703Z,100604.76
2018-11-03T15:25:56.934Z,100598.94
2018-11-03T15:29:02.462Z,100607.95
2018-11-03T15:32:08.726Z,100605.65
2018-11-03T15:35:14.160Z,100605.23
2018-11-03T15:38:19.021Z,100604.23
2018-11-03T15:41:23.910Z,100603.59
2018-11-03T15:44:28.828Z,100599.72
2018-11-03T15:47:33.966Z,100601.11
2018-11-03T15:50:44.127Z,100600.31
2018-11-03T15:53:49.085Z,100599.55
2018-11-03T15:56:54.220Z,100601.14
2018-11-03T15:59:59.144Z,100589.73
2018-11-03T16:03:04.013Z,100587.91
2018-11-03T16:06:08.956Z,100597.59
2018-11-03T16:09:13.885Z,100594.89
2018-11-03T16:12:18.995Z,100595.55
2018-11-03T16:15:23.864Z,100592.05
2018-11-03T16:18:28.706Z,100593.72
2018-11-03T16:21:33.608Z,100592.94
2018-11-03T16:24:38.585Z,100599.44
2018-11-03T16:27:43.508Z,100594.34
2018-11-03T16:30:48.417Z,100590.38
2018-11-03T16:33:54.050Z,100582.75
2018-11-03T16:36:59.582Z,100588.48
2018-11-03T16:40:04.870Z,100571.25
2018-11-03T16:43:09.804Z,100578.70
2018-11-03T16:46:14.765Z,100585.85
2018-11-03T16:49:21.925Z,100586.34
2018-11-03T16:52:26.777Z,100589.05
2018-11-03T16:55:32.015Z,100589.41
2018-11-03T16:58:38.336Z,100591.97
2018-11-03T17:01:43.204Z,100590.59
2018-11-03T17:04:48.221Z,100590.92
2018-11-03T17:07:53.206Z,100592.73
2018-11-03T17:10:58.346Z,100586.75
2018-11-03T17:14:03.379Z,100586.38
2018-11-03T17:17:08.341Z,100585.95
2018-11-03T17:20:13.382Z,100585.77
2018-11-03T17:23:18.226Z,100580.04
2018-11-03T17:26:23.846Z,100583.38
2018-11-03T17:29:28.977Z,100579.87
2018-11-03T17:32:33.905Z,100578.64
2018-11-03T17:35:38.687Z,100574.98
2018-11-03T17:38:43.402Z,100570.38
2018-11-03T17:41:48.088Z,100577.83
2018-11-03T17:44:52.663Z,100576.02
2018-11-03T17:47:57.471Z,100574.93
2018-11-03T17:51:02.261Z,100575.27
2018-11-03T17:54:07.030Z,100571.98
2018-11-03T17:57:11.764Z,100564.52
2018-11-03T18:00:17.551Z,100566.70
2018-11-03T18:03:22.542Z,100577.57
2018-11-03T18:06:27.633Z,100575.27
2018-11-03T18:09:33.318Z,100570.19
2018-11-03T18:12:38.341Z,100569.48
2018-11-03T18:15:43.504Z,100563.05
2018-11-03T18:18:48.676Z,100561.80
2018-11-03T18:21:53.508Z,100562.06
2018-11-03T18:24:58.427Z,100560.89
2018-11-03T18:28:03.947Z,100558.77
2018-11-03T18:31:10.384Z,100558.77
2018-11-03T18:34:15.908Z,100559.84
2018-11-03T18:37:21.214Z,100561.45
2018-11-03T18:40:26.222Z,100550.42
2018-11-03T18:43:31.646Z,100547.67
2018-11-03T18:46:37.021Z,100555.81
2018-11-03T18:49:42.013Z,100551.84
2018-11-03T18:52:47.145Z,100551.20
2018-11-03T18:55:52.085Z,100534.03
2018-11-03T18:58:57.229Z,100537.17
2018-11-03T19:02:02.488Z,100541.26
2018-11-03T19:05:08.921Z,100544.42
2018-11-03T19:08:14.089Z,100545.81
2018-11-03T19:11:19.160Z,100537.48
2018-11-03T19:14:24.402Z,100534.48
2018-11-03T19:17:29.949Z,100535.12
2018-11-03T19:20:35.716Z,100521.26
2018-11-03T19:23:41.048Z,100528.52
2018-11-03T19:26:46.457Z,100523.14
2018-11-03T19:29:52.073Z,100528.27
2018-11-03T19:32:57.213Z,100531.73
2018-11-03T19:36:02.574Z,100528.13
2018-11-03T19:39:09.996Z,100525.13
2018-11-03T19:42:15.706Z,100522.62
2018-11-03T19:45:20.794Z,100532.81
2018-11-03T19:48:26.262Z,100528.30
2018-11-03T19:51:32.304Z,100525.08
2018-11-03T19:54:38.109Z,100520.02
2018-11-03T19:57:43.527Z,100518.56
2018-11-03T20:00:48.854Z,100513.95
2018-11-03T20:03:54.194Z,100516.28
2018-11-03T20:06:59.618Z,100505.91
2018-11-03T20:10:04.996Z,100506.58
2018-11-03T20:13:10.571Z,100502.66
2018-11-03T20:16:15.983Z,100502.79
2018-11-03T20:19:21.516Z,100494.39
2018-11-03T20:22:31.268Z,100497.00
2018-11-03T20:25:36.222Z,100499.17
2018-11-03T20:28:41.342Z,100502.27
2018-11-03T20:31:46.533Z,100496.60
2018-11-03T20:34:52.221Z,100494.13
2018-11-03T20:37:57.677Z,100488.33
2018-11-03T20:41:02.942Z,100488.52
2018-11-03T20:44:08.394Z,100488.23
2018-11-03T20:47:13.253Z,100487.93
2018-11-03T20:50:18.252Z,100481.09
2018-11-03T20:53:23.628Z,100485.45
2018-11-03T20:56:32.449Z,100478.01
2018-11-03T20:59:37.929Z,100476.50
2018-11-03T21:02:43.929Z,100458.00
2018-11-03T21:05:49.501Z,100462.05
2018-11-03T21:08:54.976Z,100460.37
2018-11-03T21:12:00.233Z,100455.09
2018-11-03T21:15:06.175Z,100458.50
2018-11-03T21:18:11.831Z,100452.89
2018-11-03T21:21:17.317Z,100454.45
2018-11-03T21:24:22.896Z,100454.30
2018-11-03T21:27:28.690Z,100438.90
2018-11-03T21:30:34.008Z,100437.52
2018-11-03T21:33:39.395Z,100431.38
2018-11-03T21:36:44.851Z,100432.52
2018-11-03T21:39:50.285Z,100428.64
2018-11-03T21:42:55.348Z,100422.36
2018-11-03T21:46:00.702Z,100428.02
2018-11-03T21:49:06.339Z,100429.77
2018-11-03T21:52:12.279Z,100420.13
2018-11-03T21:55:17.536Z,100423.31
2018-11-03T21:58:22.877Z,100415.38
2018-11-03T22:01:28.496Z,100409.05
2018-11-03T22:04:34.020Z,100405.52
2018-11-03T22:07:39.423Z,100407.23
2018-11-03T22:10:44.853Z,100401.60
2018-11-03T22:13:50.081Z,100395.05
2018-11-03T22:16:55.517Z,100390.06
2018-11-03T22:20:01.034Z,100384.98
2018-11-03T22:23:07.151Z,100391.59
2018-11-03T22:26:13.042Z,100391.04
2018-11-03T22:29:18.249Z,100399.00
2018-11-03T22:32:23.148Z,100396.77
2018-11-03T22:35:28.268Z,100403.01
2018-11-03T22:38:33.253Z,100392.45
2018-11-03T22:41:38.764Z,100389.44
2018-11-03T22:44:43.714Z,100379.47
2018-11-03T22:47:48.534Z,100376.86
2018-11-03T22:50:53.525Z,100372.89
2018-11-03T22:53:58.547Z,100374.88
2018-11-03T22:57:03.618Z,100372.12
2018-11-03T23:00:12.856Z,100370.19
2018-11-03T23:03:18.627Z,100363.64
2018-11-03T23:06:23.338Z,100362.36
2018-11-03T23:09:28.978Z,100363.80
2018-11-03T23:12:33.932Z,100350.62
2018-11-03T23:15:38.781Z,100354.48
2018-11-03T23:18:43.697Z,100351.67
2018-11-03T23:21:48.621Z,100345.79
2018-11-03T23:24:53.291Z,100342.32
2018-11-03T23:27:58.111Z,100338.53
2018-11-03T23:31:02.976Z,100342.32
2018-11-03T23:34:07.805Z,100332.94
2018-11-03T23:37:12.718Z,100323.79
2018-11-03T23:40:17.338Z,100322.14
2018-11-03T23:43:22.374Z,100316.73
2018-11-03T23:46:27.334Z,100316.17
2018-11-03T23:49:32.262Z,100316.02
2018-11-03T23:52:37.122Z,100314.95
2018-11-03T23:55:41.868Z,100314.98
2018-11-03T23:58:46.644Z,100315.38
